createdAt,value
2018-07-21T12:35:04.444Z,6.10
2018-07-21T12:36:05.117Z,7.60
2018-07-21T12:37:05.786Z,6.90
2018-07-21T12:38:06.467Z,6.80
2018-07-21T12:39:17.558Z,7.20
2018-07-21T12:40:25.894Z,7.20
2018-07-21T12:41:26.552Z,7.40
2018-07-21T12:42:47.788Z,6.40
2018-07-21T12:43:48.453Z,6.30
2018-07-21T12:44:50.900Z,6.60
2018-07-21T12:46:19.513Z,6.50
2018-07-21T12:47:47.686Z,6.30
2018-07-21T12:48:48.394Z,5.20
2018-07-21T12:50:18.069Z,5.20
2018-07-21T12:51:18.704Z,5.20
2018-07-21T12:52:19.398Z,5.10
2018-07-21T12:53:47.778Z,5.50
2018-07-21T12:56:47.770Z,5.00
2018-07-21T12:58:19.228Z,4.80
2018-07-21T12:59:48.982Z,4.90
2018-07-21T13:00:49.689Z,4.40
2018-07-21T13:01:50.418Z,4.60
2018-07-21T13:12:48.704Z,4.90
2018-07-21T13:13:49.396Z,5.20
2018-07-21T13:14:56.223Z,5.00
2018-07-21T13:15:56.928Z,5.70
2018-07-21T13:16:57.601Z,5.20
2018-07-21T13:17:58.242Z,5.20
2018-07-21T13:19:00.036Z,5.30
2018-07-21T13:20:28.210Z,4.80
2018-07-21T13:21:48.108Z,5.10
2018-07-21T13:22:48.788Z,5.20
2018-07-21T13:23:49.463Z,4.80
2018-07-21T13:24:50.129Z,5.00
2018-07-21T13:26:25.316Z,5.30
2018-07-21T13:27:25.979Z,5.40
2018-07-21T13:30:16.772Z,5.50
2018-07-21T13:31:18.366Z,5.50
2018-07-21T13:34:16.231Z,5.20
2018-07-21T13:35:18.072Z,5.20
2018-07-21T13:36:27.702Z,5.80
2018-07-21T13:37:57.091Z,5.50
2018-07-21T13:40:44.479Z,5.50
2018-07-21T13:43:39.173Z,4.90
2018-07-21T13:44:48.520Z,5.40
2018-07-21T13:47:03.814Z,5.20
2018-07-21T13:48:04.557Z,5.10
2018-07-21T13:49:09.703Z,5.50
2018-07-21T13:50:11.473Z,4.90
2018-07-21T13:51:12.101Z,4.90
2018-07-21T13:52:26.917Z,4.90
2018-07-21T13:53:47.774Z,5.30
2018-07-21T13:54:48.666Z,5.10
2018-07-21T13:56:26.402Z,4.90
2018-07-21T13:57:45.906Z,5.10
2018-07-21T13:58:55.084Z,5.30
2018-07-21T13:59:55.930Z,5.00
2018-07-21T14:00:56.614Z,4.50
2018-07-21T14:01:57.249Z,4.70
2018-07-21T14:02:58.010Z,4.70
2018-07-21T14:03:58.729Z,4.20
2018-07-21T14:04:59.464Z,4.40
2018-07-21T14:06:00.099Z,4.30
2018-07-21T14:07:02.572Z,3.90
2018-07-21T14:08:18.002Z,4.10
2018-07-21T14:09:18.658Z,3.90
2018-07-21T14:10:19.324Z,3.90
2018-07-21T14:11:20.086Z,4.20
2018-07-21T14:12:20.854Z,4.10
2018-07-21T14:13:21.604Z,4.30
2018-07-21T14:14:57.263Z,4.20
2018-07-21T14:16:17.907Z,4.20
2018-07-21T14:17:25.661Z,4.70
2018-07-21T14:18:26.353Z,4.90
2018-07-21T14:19:27.041Z,5.20
2018-07-21T14:20:27.679Z,4.40
2018-07-21T14:21:48.560Z,4.70
2018-07-21T14:26:25.448Z,4.00
2018-07-21T14:29:27.096Z,4.00
2018-07-21T14:30:27.813Z,3.90
2018-07-21T14:31:28.539Z,4.10
2018-07-21T14:32:35.878Z,4.10
2018-07-21T14:33:36.618Z,3.80
2018-07-21T14:34:44.239Z,3.80
2018-07-21T14:35:44.933Z,4.20
2018-07-21T14:36:45.705Z,3.90
2018-07-21T14:37:47.767Z,4.10
2018-07-21T14:38:48.472Z,4.00
2018-07-21T14:39:49.153Z,4.10
2018-07-21T14:40:51.246Z,3.40
2018-07-21T14:41:51.980Z,3.70
2018-07-21T14:42:52.667Z,3.40
2018-07-21T14:43:53.431Z,3.50
2018-07-21T14:44:54.285Z,3.80
2018-07-21T14:45:54.988Z,3.70
2018-07-21T14:46:56.635Z,3.70
2018-07-21T14:48:18.178Z,3.60
2018-07-21T14:49:18.845Z,3.30
2018-07-21T14:50:19.528Z,3.50
2018-07-21T14:51:20.212Z,3.60
2018-07-21T14:52:20.912Z,3.40
2018-07-21T14:53:47.456Z,3.90
2018-07-21T14:54:48.297Z,3.90
2018-07-21T14:55:48.930Z,3.60
2018-07-21T14:56:49.574Z,3.60
2018-07-21T14:57:50.260Z,3.60
2018-07-21T14:59:18.303Z,3.60
2018-07-21T15:00:19.016Z,3.60
2018-07-21T15:01:19.705Z,3.60
2018-07-21T15:02:20.416Z,3.10
2018-07-21T15:03:21.632Z,3.20
2018-07-21T15:04:22.320Z,3.50
2018-07-21T15:05:23.055Z,3.70
2018-07-21T15:06:23.698Z,3.60
2018-07-21T15:07:24.344Z,3.50
2018-07-21T15:08:49.380Z,3.50
2018-07-21T15:09:50.068Z,3.50
2018-07-21T15:10:50.754Z,3.60
2018-07-21T15:11:51.411Z,3.60
2018-07-21T15:13:19.239Z,3.50
2018-07-21T15:16:16.416Z,3.40
2018-07-21T15:16:33.234Z,3.40
2018-07-21T15:17:17.091Z,3.30
2018-07-21T15:18:17.808Z,3.40
2018-07-21T15:19:18.481Z,3.30
2018-07-21T15:21:47.811Z,3.40
2018-07-21T15:22:48.569Z,3.20
2018-07-21T15:25:35.888Z,3.00
2018-07-21T15:26:36.580Z,2.90
2018-07-21T15:27:37.271Z,3.10
2018-07-21T15:28:37.993Z,2.90
2018-07-21T15:29:38.760Z,3.00
2018-07-21T15:30:41.873Z,3.20
2018-07-21T15:31:42.703Z,2.90
2018-07-21T15:32:43.655Z,2.80
2018-07-21T15:33:44.609Z,3.10
2018-07-21T15:34:45.257Z,3.20
2018-07-21T15:35:45.928Z,3.20
2018-07-21T15:36:46.573Z,2.90
2018-07-21T15:37:47.529Z,3.00
2018-07-21T15:38:48.167Z,3.20
2018-07-21T15:39:48.867Z,3.10
2018-07-21T15:40:49.565Z,3.00
2018-07-21T15:42:18.190Z,3.30
2018-07-21T15:43:18.856Z,3.20
2018-07-21T15:44:28.125Z,3.10
2018-07-21T15:45:28.830Z,3.30
2018-07-21T15:46:33.690Z,3.50
2018-07-21T15:48:47.607Z,3.30
2018-07-21T15:49:48.272Z,3.70
2018-07-21T15:50:48.961Z,3.70
2018-07-21T15:51:49.606Z,3.60
2018-07-21T15:52:50.285Z,3.40
2018-07-21T15:53:50.928Z,3.50
2018-07-21T15:54:51.706Z,3.40
2018-07-21T16:28:55.356Z,4.90
2018-07-21T16:29:55.990Z,4.50
2018-07-21T16:30:56.653Z,4.30
2018-07-21T16:31:57.376Z,4.60
2018-07-21T16:32:58.023Z,4.50
2018-07-21T16:34:19.263Z,4.60
2018-07-21T16:35:19.899Z,4.60
